Time;durP1;ratioP1;P1;durP2;ratioP2;P2;SDS_P1;SDS_P2;PMS_P1;PMS_P2;Temp;Humidity;BMP_temperature;BMP_pressure;BME280_temperature;BME280_humidity;BME280_pressure;Samples;Min_cycle;Max_cycle;Signal;HPM_P1;HPM_P2
2023/12/15 00:01:03;;;;;;;4.97;4.20;;;5.30;99.90;;;;;;5075148;28;20856;-82
2023/12/15 00:03:31;;;;;;;6.80;3.77;;;5.20;99.90;;;;;;5073903;28;20467;-82
2023/12/15 00:05:59;;;;;;;4.80;4.33;;;5.20;99.90;;;;;;5072526;28;20927;-82
2023/12/15 00:08:26;;;;;;;4.93;4.47;;;5.30;99.90;;;;;;5079445;28;20512;-82
2023/12/15 00:10:53;;;;;;;5.90;4.70;;;5.30;99.90;;;;;;5077592;28;20914;-82
2023/12/15 00:13:20;;;;;;;4.37;3.80;;;5.30;99.90;;;;;;5075761;28;20468;-82
2023/12/15 00:15:47;;;;;;;6.63;4.13;;;5.30;99.90;;;;;;5064890;28;20463;-82
2023/12/15 00:18:14;;;;;;;6.57;5.27;;;5.30;99.90;;;;;;5070154;28;20563;-83
2023/12/15 00:20:41;;;;;;;7.10;5.40;;;5.30;99.90;;;;;;5078501;28;20455;-82
2023/12/15 00:23:09;;;;;;;5.10;4.63;;;5.30;99.90;;;;;;5077291;28;20443;-82
2023/12/15 00:25:36;;;;;;;7.10;4.93;;;5.30;99.90;;;;;;5074480;28;20897;-82
2023/12/15 00:28:03;;;;;;;8.00;5.60;;;5.30;99.90;;;;;;5072434;28;20463;-83
2023/12/15 00:30:30;;;;;;;7.40;5.57;;;5.30;99.90;;;;;;5079829;28;20769;-82
2023/12/15 00:32:57;;;;;;;5.80;5.20;;;5.30;99.90;;;;;;5075815;28;20481;-82
2023/12/15 00:35:24;;;;;;;4.43;3.87;;;5.20;99.90;;;;;;5074808;28;20524;-83
2023/12/15 00:37:51;;;;;;;7.10;5.50;;;5.20;99.90;;;;;;5077016;28;20506;-82
2023/12/15 00:40:19;;;;;;;5.77;4.30;;;5.30;99.90;;;;;;5074675;28;20463;-83
2023/12/15 00:42:46;;;;;;;5.80;5.10;;;5.20;99.90;;;;;;5072978;28;20447;-82
2023/12/15 00:45:13;;;;;;;6.10;3.80;;;5.20;99.90;;;;;;5073023;28;20529;-83
2023/12/15 00:47:40;;;;;;;4.60;4.10;;;5.20;99.90;;;;;;5075082;28;20462;-83
2023/12/15 00:50:08;;;;;;;5.10;4.50;;;5.20;99.90;;;;;;5080826;28;20530;-84
2023/12/15 00:52:35;;;;;;;4.33;3.47;;;5.20;99.90;;;;;;5073453;28;20572;-84
2023/12/15 00:55:02;;;;;;;6.40;4.47;;;5.20;99.90;;;;;;5077023;28;20446;-84
2023/12/15 00:57:31;;;;;;;4.80;4.10;;;5.20;99.90;;;;;;5074382;28;20549;-83
2023/12/15 00:59:58;;;;;;;4.93;4.33;;;5.20;99.90;;;;;;5084734;28;20459;-84
2023/12/15 01:02:25;;;;;;;4.80;4.20;;;5.10;99.90;;;;;;5071507;28;20443;-83
2023/12/15 01:04:52;;;;;;;6.63;4.40;;;5.20;99.90;;;;;;5078779;28;20466;-83
2023/12/15 01:07:19;;;;;;;6.30;4.70;;;5.10;99.90;;;;;;5083867;28;20930;-81
2023/12/15 01:09:46;;;;;;;7.30;5.90;;;5.10;99.90;;;;;;5071019;28;20442;-81
2023/12/15 01:12:13;;;;;;;4.60;3.73;;;5.10;99.90;;;;;;5082688;28;20548;-81
2023/12/15 01:14:41;;;;;;;5.13;3.90;;;5.10;99.90;;;;;;5086373;28;20500;-81
2023/12/15 01:17:08;;;;;;;8.17;4.20;;;5.10;99.90;;;;;;5072504;28;20462;-82
2023/12/15 01:19:36;;;;;;;6.60;4.70;;;5.10;99.90;;;;;;5070454;28;20549;-82
2023/12/15 01:22:03;;;;;;;5.23;4.63;;;5.10;99.90;;;;;;5077186;28;20461;-82
2023/12/15 01:24:30;;;;;;;5.53;4.70;;;5.10;99.90;;;;;;5068640;28;20605;-82
2023/12/15 01:26:57;;;;;;;7.47;5.13;;;5.00;99.90;;;;;;5072145;28;20520;-82
2023/12/15 01:29:24;;;;;;;6.47;5.00;;;5.00;99.90;;;;;;5083982;28;20447;-82
2023/12/15 01:31:52;;;;;;;5.60;4.20;;;4.90;99.90;;;;;;5076377;28;20847;-83
2023/12/15 01:34:19;;;;;;;4.50;3.33;;;4.90;99.90;;;;;;5077215;28;20448;-83
2023/12/15 01:36:46;;;;;;;5.33;3.90;;;4.90;99.90;;;;;;5066910;28;20448;-83
2023/12/15 01:39:13;;;;;;;5.40;4.20;;;4.90;99.90;;;;;;5074079;28;20483;-83
2023/12/15 01:41:40;;;;;;;5.70;4.10;;;4.80;99.90;;;;;;5068804;28;20467;-83
2023/12/15 01:44:07;;;;;;;6.23;4.00;;;4.90;99.90;;;;;;5082106;28;20639;-83
2023/12/15 01:46:34;;;;;;;4.80;4.27;;;4.90;99.90;;;;;;5081410;28;20467;-84
2023/12/15 01:49:02;;;;;;;6.60;4.90;;;4.90;99.90;;;;;;5081219;28;20761;-81
2023/12/15 01:51:29;;;;;;;5.97;4.77;;;4.90;99.90;;;;;;5074970;28;20535;-81
2023/12/15 01:53:56;;;;;;;4.50;3.93;;;4.90;99.90;;;;;;5086434;28;20751;-81
2023/12/15 01:56:23;;;;;;;5.57;3.90;;;4.90;99.90;;;;;;5079158;28;20507;-83
2023/12/15 01:58:50;;;;;;;4.60;3.63;;;5.00;99.90;;;;;;5077705;28;20548;-82
2023/12/15 02:01:17;;;;;;;3.53;3.20;;;4.90;99.90;;;;;;5078426;28;20504;-82
2023/12/15 02:03:44;;;;;;;5.17;4.40;;;4.90;99.90;;;;;;5082451;28;20502;-82
2023/12/15 02:06:13;;;;;;;4.47;3.00;;;4.90;99.90;;;;;;5076690;28;20439;-81
2023/12/15 02:08:44;;;;;;;4.23;3.20;;;4.90;99.90;;;;;;5075016;28;20466;-81
2023/12/15 02:11:11;;;;;;;3.17;2.87;;;4.90;99.90;;;;;;5082790;28;20463;-82
2023/12/15 02:13:38;;;;;;;3.30;3.00;;;4.90;99.90;;;;;;5083087;28;20447;-82
2023/12/15 02:16:06;;;;;;;2.90;2.40;;;5.00;99.90;;;;;;5083840;28;20465;-82
2023/12/15 02:18:33;;;;;;;3.57;2.70;;;4.90;99.90;;;;;;5081906;28;20494;-82
2023/12/15 02:21:00;;;;;;;4.10;3.63;;;4.90;99.90;;;;;;5068704;28;20803;-82
2023/12/15 02:23:28;;;;;;;3.70;3.40;;;4.90;99.90;;;;;;5085186;28;20500;-82
2023/12/15 02:25:55;;;;;;;3.73;3.00;;;4.90;99.90;;;;;;5081331;28;20442;-81
2023/12/15 02:28:22;;;;;;;4.27;3.33;;;4.90;99.90;;;;;;5082090;28;20458;-82
2023/12/15 02:30:49;;;;;;;3.87;3.10;;;4.90;99.90;;;;;;5067269;28;20590;-82
2023/12/15 02:33:16;;;;;;;3.40;3.07;;;4.90;99.90;;;;;;5075818;28;20451;-82
2023/12/15 02:35:47;;;;;;;2.83;2.53;;;4.80;99.90;;;;;;5066384;28;20447;-82
2023/12/15 02:38:18;;;;;;;3.20;2.90;;;4.80;99.90;;;;;;5069915;28;20557;-82
2023/12/15 02:40:46;;;;;;;2.80;2.37;;;4.80;99.90;;;;;;5071028;28;20471;-82
2023/12/15 02:43:13;;;;;;;2.40;1.90;;;4.80;99.90;;;;;;5076396;28;20492;-82
2023/12/15 02:45:40;;;;;;;5.60;3.20;;;4.80;99.90;;;;;;5068551;28;20463;-82
2023/12/15 02:48:07;;;;;;;3.30;3.00;;;4.80;99.90;;;;;;5077657;28;20986;-82
2023/12/15 02:50:34;;;;;;;2.67;2.20;;;4.80;99.90;;;;;;5077064;28;20615;-82
2023/12/15 02:53:01;;;;;;;3.00;2.47;;;4.80;99.90;;;;;;5074855;28;20462;-82
2023/12/15 02:55:28;;;;;;;3.40;3.03;;;4.80;99.90;;;;;;5071832;28;20537;-82
2023/12/15 02:57:56;;;;;;;2.80;2.57;;;4.80;99.90;;;;;;5070480;28;20444;-82
2023/12/15 03:00:23;;;;;;;2.33;1.77;;;4.80;99.90;;;;;;5079304;28;20471;-82
2023/12/15 03:02:50;;;;;;;2.40;1.73;;;4.80;99.90;;;;;;5079834;28;20508;-81
2023/12/15 03:05:17;;;;;;;2.20;1.67;;;4.70;99.90;;;;;;5085643;28;20439;-82
2023/12/15 03:07:44;;;;;;;3.17;2.50;;;4.70;99.90;;;;;;5077496;28;20467;-82
2023/12/15 03:10:11;;;;;;;3.23;2.07;;;4.70;99.90;;;;;;5069705;28;20452;-82
2023/12/15 03:12:38;;;;;;;1.43;1.30;;;4.70;99.90;;;;;;5073903;28;20449;-82
2023/12/15 03:15:08;;;;;;;2.53;1.47;;;4.70;99.90;;;;;;5077650;28;20462;-82
2023/12/15 03:17:35;;;;;;;2.17;1.93;;;4.70;99.90;;;;;;5068834;28;20864;-81
2023/12/15 03:20:03;;;;;;;2.13;1.30;;;4.70;99.90;;;;;;5072822;28;20490;-82
2023/12/15 03:22:31;;;;;;;1.73;1.63;;;4.60;99.90;;;;;;5073845;28;20493;-82
2023/12/15 03:24:58;;;;;;;2.10;1.87;;;4.60;99.90;;;;;;5075928;28;20459;-82
2023/12/15 03:27:25;;;;;;;2.40;1.30;;;4.60;99.90;;;;;;5078721;28;20447;-82
2023/12/15 03:29:52;;;;;;;1.40;1.30;;;4.60;99.90;;;;;;5070504;28;20471;-82
2023/12/15 03:32:20;;;;;;;1.33;1.20;;;4.60;99.90;;;;;;5065589;28;20835;-81
2023/12/15 03:34:47;;;;;;;1.23;1.13;;;4.60;99.90;;;;;;5078588;28;20512;-81
2023/12/15 03:37:14;;;;;;;1.80;1.17;;;4.60;99.90;;;;;;5068456;28;20516;-82
2023/12/15 03:39:41;;;;;;;1.57;1.27;;;4.50;99.90;;;;;;5066585;28;20965;-81
2023/12/15 03:42:08;;;;;;;1.63;1.33;;;4.50;99.90;;;;;;5078467;28;20451;-82
2023/12/15 03:44:39;;;;;;;1.93;1.30;;;4.50;99.90;;;;;;5078419;28;20947;-82
2023/12/15 03:47:06;;;;;;;1.80;1.03;;;4.50;99.90;;;;;;5082731;28;20458;-81
2023/12/15 03:49:35;;;;;;;2.10;1.10;;;4.50;99.90;;;;;;5079234;28;20524;-81
2023/12/15 03:52:03;;;;;;;1.23;1.13;;;4.50;99.90;;;;;;5075940;28;20463;-82
2023/12/15 03:54:30;;;;;;;1.50;1.40;;;4.50;99.90;;;;;;5081498;28;20525;-82
2023/12/15 03:56:58;;;;;;;2.20;1.60;;;4.40;99.90;;;;;;5068528;28;21093;-82
2023/12/15 03:59:25;;;;;;;2.23;1.53;;;4.40;99.90;;;;;;5081269;28;20525;-82
2023/12/15 04:01:52;;;;;;;1.90;1.33;;;4.30;99.90;;;;;;5077173;28;20560;-82
2023/12/15 04:04:20;;;;;;;2.90;2.40;;;4.30;99.90;;;;;;5081179;28;20469;-82
2023/12/15 04:06:48;;;;;;;1.97;1.47;;;4.30;99.90;;;;;;5075320;28;20455;-82
2023/12/15 04:09:15;;;;;;;2.43;1.53;;;4.30;99.90;;;;;;5073318;28;20475;-82
2023/12/15 04:11:42;;;;;;;3.50;2.33;;;4.30;99.90;;;;;;5080522;28;20626;-82
2023/12/15 04:14:09;;;;;;;1.43;1.23;;;4.30;99.90;;;;;;5084424;28;20780;-81
2023/12/15 04:16:36;;;;;;;2.77;1.73;;;4.30;99.90;;;;;;5084379;28;20494;-82
2023/12/15 04:19:03;;;;;;;2.03;1.70;;;4.30;99.90;;;;;;5081429;28;20493;-82
2023/12/15 04:21:30;;;;;;;3.13;2.20;;;4.30;99.90;;;;;;5071749;28;21201;-82
2023/12/15 04:23:58;;;;;;;2.87;1.97;;;4.20;99.90;;;;;;5073502;28;20468;-82
2023/12/15 04:26:26;;;;;;;2.87;2.60;;;4.30;99.90;;;;;;5087913;28;20450;-82
2023/12/15 04:28:53;;;;;;;2.60;2.03;;;4.30;99.90;;;;;;5082083;28;20463;-82
2023/12/15 04:31:20;;;;;;;2.27;1.53;;;4.30;99.90;;;;;;5077322;28;20500;-82
2023/12/15 04:33:47;;;;;;;2.70;2.17;;;4.20;99.90;;;;;;5076984;28;20462;-82
2023/12/15 04:36:17;;;;;;;4.00;2.90;;;4.20;99.90;;;;;;5078314;28;20517;-82
2023/12/15 04:38:44;;;;;;;2.97;2.37;;;4.20;99.90;;;;;;5083491;28;20974;-82
2023/12/15 04:41:19;;;;;;;3.10;2.30;;;4.20;99.90;;;;;;5070622;28;20525;-82
2023/12/15 04:43:47;;;;;;;3.63;2.33;;;4.30;99.90;;;;;;5081659;28;20590;-82
2023/12/15 04:46:22;;;;;;;2.17;1.60;;;4.20;99.90;;;;;;5070834;28;20447;-82
2023/12/15 04:48:49;;;;;;;3.37;1.90;;;4.20;99.90;;;;;;5080571;28;21292;-82
2023/12/15 04:51:16;;;;;;;1.67;1.57;;;4.20;99.90;;;;;;5079650;28;20462;-82
2023/12/15 04:53:42;;;;;;;3.30;2.80;;;4.20;99.90;;;;;;5089317;28;20451;-82
2023/12/15 04:56:10;;;;;;;3.07;2.37;;;4.20;99.90;;;;;;5071882;28;20487;-82
2023/12/15 04:58:39;;;;;;;5.30;2.83;;;4.10;99.90;;;;;;5073000;28;20500;-82
2023/12/15 05:01:09;;;;;;;3.10;2.50;;;4.10;99.90;;;;;;5079158;28;20502;-82
2023/12/15 05:03:37;;;;;;;3.63;2.37;;;4.10;99.90;;;;;;5090140;28;20940;-82
2023/12/15 05:06:04;;;;;;;2.73;2.53;;;4.10;99.90;;;;;;5080736;28;20886;-82
2023/12/15 05:08:31;;;;;;;3.33;2.40;;;4.10;99.90;;;;;;5083469;28;20511;-82
2023/12/15 05:10:58;;;;;;;5.87;2.73;;;4.10;99.90;;;;;;5077317;28;20447;-82
2023/12/15 05:13:25;;;;;;;5.80;4.17;;;4.10;99.90;;;;;;5077454;28;20465;-82
2023/12/15 05:15:54;;;;;;;4.30;2.67;;;4.10;99.90;;;;;;5067499;28;20497;-82
2023/12/15 05:18:21;;;;;;;5.63;3.47;;;4.00;99.90;;;;;;5073541;28;20595;-82
2023/12/15 05:20:47;;;;;;;3.13;2.90;;;4.10;99.90;;;;;;5073247;28;21041;-82
2023/12/15 05:23:15;;;;;;;5.13;2.90;;;4.10;99.90;;;;;;5072512;28;20471;-82
2023/12/15 05:25:42;;;;;;;3.53;2.80;;;4.00;99.90;;;;;;5072407;28;20448;-82
2023/12/15 05:28:09;;;;;;;5.40;2.87;;;4.00;99.90;;;;;;5069754;28;20467;-82
2023/12/15 05:30:35;;;;;;;9.13;3.90;;;4.00;99.90;;;;;;5068209;28;20440;-82
2023/12/15 05:33:04;;;;;;;5.00;3.83;;;4.00;99.90;;;;;;5069295;28;20810;-82
2023/12/15 05:35:31;;;;;;;3.27;2.90;;;4.00;99.90;;;;;;5073161;28;20551;-82
2023/12/15 05:37:58;;;;;;;3.60;3.00;;;4.00;99.90;;;;;;5071744;28;20548;-82
2023/12/15 05:40:25;;;;;;;5.93;4.13;;;3.90;99.90;;;;;;5069083;28;20492;-82
2023/12/15 05:42:52;;;;;;;3.70;2.70;;;3.90;99.90;;;;;;5074652;28;20606;-82
2023/12/15 05:45:19;;;;;;;3.50;3.17;;;4.00;99.90;;;;;;5071099;28;20468;-82
2023/12/15 05:47:46;;;;;;;4.50;4.07;;;3.90;99.90;;;;;;5079468;28;20467;-81
2023/12/15 05:50:14;;;;;;;2.90;2.40;;;3.90;99.90;;;;;;5076460;28;21025;-82
2023/12/15 05:52:41;;;;;;;6.73;4.60;;;3.90;99.90;;;;;;5071593;28;20438;-81
2023/12/15 05:55:09;;;;;;;4.90;3.17;;;3.90;99.90;;;;;;5065221;28;20495;-81
2023/12/15 05:57:36;;;;;;;4.40;3.50;;;3.90;99.90;;;;;;5067785;28;20471;-81
2023/12/15 06:00:03;;;;;;;4.47;3.73;;;3.80;99.90;;;;;;5076975;28;20484;-81
2023/12/15 06:02:30;;;;;;;4.87;3.10;;;3.80;99.90;;;;;;5066512;28;20484;-81
2023/12/15 06:04:58;;;;;;;6.00;5.00;;;3.70;99.90;;;;;;5082062;28;20447;-81
2023/12/15 06:07:27;;;;;;;3.97;2.80;;;3.60;99.90;;;;;;5073108;28;20502;-81
2023/12/15 06:09:54;;;;;;;4.93;3.33;;;3.50;99.90;;;;;;5080437;28;20435;-81
2023/12/15 06:12:21;;;;;;;3.70;3.00;;;3.40;99.90;;;;;;5077139;28;20457;-81
2023/12/15 06:14:48;;;;;;;6.20;2.90;;;3.40;99.90;;;;;;5075215;28;20521;-82
2023/12/15 06:17:15;;;;;;;4.83;3.23;;;3.40;99.90;;;;;;5069366;28;20467;-82
2023/12/15 06:19:42;;;;;;;3.23;2.20;;;3.30;99.90;;;;;;5078069;28;20589;-81
2023/12/15 06:22:09;;;;;;;5.10;2.60;;;3.30;99.90;;;;;;5070644;28;20521;-82
2023/12/15 06:24:37;;;;;;;3.53;2.53;;;3.30;99.90;;;;;;5074056;28;20447;-82
2023/12/15 06:27:05;;;;;;;3.63;3.17;;;3.30;99.90;;;;;;5062754;28;20455;-82
2023/12/15 06:29:32;;;;;;;4.50;3.30;;;3.30;99.90;;;;;;5069294;28;20439;-82
2023/12/15 06:31:59;;;;;;;4.23;3.37;;;3.30;99.90;;;;;;5080975;28;21066;-82
2023/12/15 06:34:26;;;;;;;4.67;4.13;;;3.30;99.90;;;;;;5068181;28;20502;-82
2023/12/15 06:36:53;;;;;;;4.20;3.03;;;3.20;99.90;;;;;;5064355;28;20468;-82
2023/12/15 06:39:19;;;;;;;6.20;4.13;;;3.10;99.90;;;;;;5077392;28;20479;-82
2023/12/15 06:41:48;;;;;;;4.63;4.20;;;3.10;99.90;;;;;;5065748;28;20806;-82
2023/12/15 06:44:15;;;;;;;3.80;3.50;;;3.10;99.90;;;;;;5073759;28;20551;-82
2023/12/15 06:46:42;;;;;;;6.63;4.00;;;3.00;99.90;;;;;;5064988;28;20464;-82
2023/12/15 06:49:09;;;;;;;7.50;4.53;;;3.00;99.90;;;;;;5072661;28;20443;-82
2023/12/15 06:51:36;;;;;;;6.47;4.20;;;3.00;99.90;;;;;;5073287;28;20443;-83
2023/12/15 06:54:03;;;;;;;4.80;3.50;;;2.90;99.90;;;;;;5079895;28;20561;-83
2023/12/15 06:56:30;;;;;;;4.20;3.80;;;3.00;99.90;;;;;;5081889;28;20494;-82
2023/12/15 06:58:59;;;;;;;5.07;2.93;;;3.00;99.90;;;;;;5072406;28;20555;-82
2023/12/15 07:01:26;;;;;;;5.50;3.53;;;3.00;99.90;;;;;;5082027;28;20498;-82
2023/12/15 07:03:53;;;;;;;4.13;3.20;;;3.00;99.90;;;;;;5072567;28;20459;-82
2023/12/15 07:06:20;;;;;;;4.53;3.87;;;3.00;99.90;;;;;;5066554;28;20460;-83
2023/12/15 07:08:50;;;;;;;4.00;2.80;;;3.00;99.90;;;;;;5069795;28;20435;-82
2023/12/15 07:11:17;;;;;;;6.23;3.93;;;3.00;99.90;;;;;;5076414;28;20760;-82
2023/12/15 07:13:44;;;;;;;6.27;3.27;;;3.00;99.90;;;;;;5078723;28;20464;-82
2023/12/15 07:16:12;;;;;;;5.13;4.37;;;3.00;99.90;;;;;;5070002;28;21147;-83
2023/12/15 07:18:39;;;;;;;4.40;2.70;;;2.90;99.90;;;;;;5076604;28;21127;-83
2023/12/15 07:21:07;;;;;;;5.07;3.20;;;2.90;99.90;;;;;;5068404;28;20491;-82
2023/12/15 07:23:34;;;;;;;5.00;3.40;;;2.90;99.90;;;;;;5071914;28;20525;-81
2023/12/15 07:26:01;;;;;;;4.40;3.90;;;2.80;99.90;;;;;;5069478;28;20483;-82
2023/12/15 07:28:28;;;;;;;4.80;3.83;;;2.80;99.90;;;;;;5068256;28;20581;-82
2023/12/15 07:30:55;;;;;;;4.23;3.77;;;2.80;99.90;;;;;;5064127;28;20525;-81
2023/12/15 07:33:24;;;;;;;5.20;3.00;;;2.80;99.90;;;;;;5075090;28;20466;-82
2023/12/15 07:35:50;;;;;;;7.90;3.57;;;2.80;99.90;;;;;;5079403;28;20447;-82
2023/12/15 07:38:17;;;;;;;7.87;4.83;;;2.80;99.90;;;;;;5075346;28;20521;-82
2023/12/15 07:40:44;;;;;;;5.00;2.97;;;2.80;99.90;;;;;;5070859;28;20631;-82
2023/12/15 07:43:11;;;;;;;4.07;3.30;;;2.80;99.90;;;;;;5082133;28;20520;-81
2023/12/15 07:45:38;;;;;;;4.53;2.83;;;2.70;99.90;;;;;;5067641;28;20460;-81
2023/12/15 07:48:05;;;;;;;5.13;3.13;;;2.70;99.90;;;;;;5062502;28;20520;-81
2023/12/15 07:50:34;;;;;;;7.83;3.50;;;2.70;99.90;;;;;;5067530;28;20496;-81
2023/12/15 07:53:01;;;;;;;4.60;3.13;;;2.70;99.90;;;;;;5076924;28;20439;-82
2023/12/15 07:55:28;;;;;;;5.27;3.50;;;2.70;99.90;;;;;;5075309;28;20543;-83
2023/12/15 07:57:55;;;;;;;2.60;2.40;;;2.70;99.90;;;;;;5067328;28;20486;-82
2023/12/15 08:00:22;;;;;;;5.40;3.47;;;2.70;99.90;;;;;;5080035;28;20482;-82
2023/12/15 08:02:49;;;;;;;5.80;3.77;;;2.70;99.90;;;;;;5065029;28;20472;-82
2023/12/15 08:05:18;;;;;;;4.60;3.90;;;2.70;99.90;;;;;;5074295;28;20462;-82
2023/12/15 08:07:46;;;;;;;10.10;3.80;;;2.70;99.90;;;;;;5067065;28;20452;-82
2023/12/15 08:10:13;;;;;;;7.30;4.67;;;2.80;99.90;;;;;;5083833;28;20438;-82
2023/12/15 08:12:40;;;;;;;5.37;3.37;;;2.80;99.90;;;;;;5067095;28;20472;-81
2023/12/15 08:15:08;;;;;;;5.27;4.00;;;2.80;99.90;;;;;;5068521;28;20472;-81
2023/12/15 08:17:35;;;;;;;4.83;3.30;;;2.80;99.90;;;;;;5077659;28;20949;-82
2023/12/15 08:20:03;;;;;;;4.70;3.13;;;2.90;99.90;;;;;;5064807;28;20517;-82
2023/12/15 08:22:30;;;;;;;6.07;4.30;;;2.80;99.90;;;;;;5068973;28;20471;-81
2023/12/15 08:24:58;;;;;;;6.90;5.33;;;2.80;99.90;;;;;;5068446;28;20436;-82
2023/12/15 08:27:25;;;;;;;4.60;3.70;;;2.90;99.90;;;;;;5064314;28;20475;-82
2023/12/15 08:29:56;;;;;;;6.17;4.13;;;2.90;99.90;;;;;;5071767;28;20458;-82
2023/12/15 08:32:24;;;;;;;6.70;4.00;;;2.90;99.90;;;;;;5066270;28;20458;-82
2023/12/15 08:34:50;;;;;;;15.87;8.87;;;2.90;99.90;;;;;;5078409;28;20504;-82
2023/12/15 08:37:18;;;;;;;5.87;2.87;;;2.90;99.90;;;;;;5065459;28;21308;-82
2023/12/15 08:39:46;;;;;;;4.43;3.50;;;2.90;99.90;;;;;;5068546;28;20516;-82
2023/12/15 08:42:14;;;;;;;3.93;3.33;;;3.00;99.90;;;;;;5065884;28;20985;-82
2023/12/15 08:44:43;;;;;;;3.67;3.33;;;3.00;99.90;;;;;;5067091;28;20464;-82
2023/12/15 08:47:10;;;;;;;7.93;4.87;;;3.00;99.90;;;;;;5070411;28;20447;-82
2023/12/15 08:49:37;;;;;;;9.80;4.33;;;3.10;99.90;;;;;;5075243;28;20462;-82
2023/12/15 08:52:04;;;;;;;6.40;3.67;;;3.10;99.90;;;;;;5071864;28;20866;-82
2023/12/15 08:54:31;;;;;;;7.33;3.27;;;3.10;99.90;;;;;;5078912;28;20524;-82
2023/12/15 08:56:58;;;;;;;5.40;3.10;;;3.10;99.90;;;;;;5079193;28;20467;-82
2023/12/15 08:59:27;;;;;;;5.70;4.27;;;3.20;99.90;;;;;;5069855;28;20451;-82
2023/12/15 09:01:53;;;;;;;4.83;3.33;;;3.20;99.90;;;;;;5074926;28;20483;-83
2023/12/15 09:04:20;;;;;;;7.30;4.27;;;3.20;99.90;;;;;;5077623;28;20643;-82
2023/12/15 09:06:47;;;;;;;6.23;3.80;;;3.30;99.90;;;;;;5082523;28;20497;-82
2023/12/15 09:09:15;;;;;;;6.13;3.87;;;3.30;99.90;;;;;;5070453;28;20473;-82
2023/12/15 09:11:42;;;;;;;6.20;4.67;;;3.30;99.90;;;;;;5082433;28;20501;-82
2023/12/15 09:14:09;;;;;;;6.40;3.80;;;3.30;99.90;;;;;;5071932;28;20467;-81
2023/12/15 09:16:37;;;;;;;6.30;4.07;;;3.40;99.90;;;;;;5087103;28;20442;-82
2023/12/15 09:19:04;;;;;;;4.03;2.87;;;3.50;99.90;;;;;;5077197;28;20509;-82
2023/12/15 09:21:31;;;;;;;6.80;3.80;;;3.50;99.90;;;;;;5079898;28;21019;-82
2023/12/15 09:23:58;;;;;;;6.33;3.60;;;3.50;99.90;;;;;;5082928;28;20478;-82
2023/12/15 09:26:25;;;;;;;5.97;2.60;;;3.40;99.90;;;;;;5084031;28;20454;-82
2023/12/15 09:28:52;;;;;;;5.03;2.77;;;3.50;99.90;;;;;;5069473;28;20490;-82
2023/12/15 09:31:19;;;;;;;4.20;2.77;;;3.50;99.90;;;;;;5070626;28;20878;-82
2023/12/15 09:33:48;;;;;;;4.67;3.17;;;3.50;99.90;;;;;;5082821;28;20459;-82
2023/12/15 09:36:15;;;;;;;2.67;2.47;;;3.50;99.90;;;;;;5072685;28;20459;-82
2023/12/15 09:38:42;;;;;;;4.43;3.70;;;3.50;99.90;;;;;;5075778;28;20497;-82
2023/12/15 09:41:09;;;;;;;5.40;3.57;;;3.50;99.90;;;;;;5085578;28;20486;-82
2023/12/15 09:43:36;;;;;;;3.67;3.10;;;3.50;99.90;;;;;;5071345;28;20906;-83
2023/12/15 09:46:04;;;;;;;4.47;3.70;;;3.50;99.90;;;;;;5077991;28;20505;-83
2023/12/15 09:48:33;;;;;;;6.07;3.30;;;3.50;99.90;;;;;;5084859;28;20491;-82
2023/12/15 09:51:04;;;;;;;6.57;3.87;;;3.50;99.90;;;;;;5084309;28;20492;-83
2023/12/15 09:53:36;;;;;;;3.83;3.10;;;3.50;99.90;;;;;;5078841;28;20561;-83
2023/12/15 09:56:03;;;;;;;5.63;4.30;;;3.60;99.90;;;;;;5071137;28;20529;-82
2023/12/15 09:58:31;;;;;;;5.30;3.40;;;3.60;99.90;;;;;;5084504;28;21163;-82
2023/12/15 10:00:58;;;;;;;5.10;3.80;;;3.60;99.90;;;;;;5083497;28;21053;-83
2023/12/15 10:03:25;;;;;;;5.03;3.80;;;3.80;99.90;;;;;;5075381;28;20478;-83
2023/12/15 10:05:52;;;;;;;5.50;3.10;;;3.80;99.90;;;;;;5070197;28;21180;-83
2023/12/15 10:08:23;;;;;;;7.57;4.03;;;4.00;99.90;;;;;;5069520;28;20467;-83
2023/12/15 10:10:51;;;;;;;7.50;4.23;;;4.30;99.90;;;;;;5073670;28;20467;-83
2023/12/15 10:13:18;;;;;;;4.07;2.50;;;4.40;99.90;;;;;;5074727;28;20479;-83
2023/12/15 10:15:50;;;;;;;3.80;2.90;;;4.60;99.90;;;;;;5072831;28;20936;-83
2023/12/15 10:18:17;;;;;;;3.00;2.13;;;4.50;99.90;;;;;;5072281;28;20444;-83
2023/12/15 10:20:45;;;;;;;5.53;2.40;;;4.50;99.90;;;;;;5075830;28;20537;-83
2023/12/15 10:23:14;;;;;;;4.50;3.03;;;4.50;99.90;;;;;;5071783;28;20452;-82
2023/12/15 10:25:47;;;;;;;4.60;2.60;;;4.50;99.90;;;;;;5079806;28;20972;-82
2023/12/15 10:28:16;;;;;;;2.57;2.03;;;4.30;99.90;;;;;;5072864;28;20451;-83
2023/12/15 10:30:43;;;;;;;3.57;2.77;;;4.30;99.90;;;;;;5076724;28;20883;-83
2023/12/15 10:33:10;;;;;;;4.13;2.93;;;4.30;99.90;;;;;;5073492;28;20506;-82
2023/12/15 10:35:38;;;;;;;2.97;2.67;;;4.10;99.90;;;;;;5075990;28;20463;-83
2023/12/15 10:38:07;;;;;;;3.30;2.00;;;4.10;99.90;;;;;;5074836;28;20459;-82
2023/12/15 10:40:34;;;;;;;2.23;1.77;;;4.00;99.90;;;;;;5068881;28;21021;-83
2023/12/15 10:43:04;;;;;;;3.10;2.80;;;3.90;99.90;;;;;;5077997;28;20439;-83
2023/12/15 10:45:32;;;;;;;3.43;2.27;;;4.10;99.90;;;;;;5069921;28;20463;-83
2023/12/15 10:48:01;;;;;;;3.90;2.40;;;4.10;99.90;;;;;;5064866;28;20858;-83
2023/12/15 10:50:29;;;;;;;2.17;1.70;;;3.90;99.90;;;;;;5074569;28;20962;-83
2023/12/15 10:52:57;;;;;;;4.40;2.73;;;3.90;99.90;;;;;;5072015;28;20471;-83
2023/12/15 10:55:25;;;;;;;4.90;3.23;;;3.90;99.90;;;;;;5069242;28;20543;-82
2023/12/15 10:57:52;;;;;;;4.33;2.80;;;4.00;99.90;;;;;;5069784;28;20464;-83
2023/12/15 11:00:20;;;;;;;4.47;2.63;;;4.00;99.90;;;;;;5078768;28;20439;-83
2023/12/15 11:02:49;;;;;;;3.70;2.20;;;4.00;99.90;;;;;;5063690;28;20544;-82
2023/12/15 11:05:17;;;;;;;4.83;2.63;;;4.00;99.90;;;;;;5070592;28;20530;-83
2023/12/15 11:07:44;;;;;;;4.97;3.67;;;4.00;99.90;;;;;;5069993;28;20455;-83
2023/12/15 11:10:12;;;;;;;5.53;4.20;;;4.00;99.90;;;;;;5072578;28;21009;-82
2023/12/15 11:12:41;;;;;;;4.53;2.33;;;4.00;99.90;;;;;;5077234;28;20439;-82
2023/12/15 11:15:09;;;;;;;6.77;3.80;;;3.90;99.90;;;;;;5072399;28;20558;-83
2023/12/15 11:17:42;;;;;;;4.70;3.00;;;3.80;99.90;;;;;;5069195;28;20502;-83
2023/12/15 11:20:12;;;;;;;3.90;3.40;;;3.90;99.90;;;;;;5066657;28;20467;-83
2023/12/15 11:22:47;;;;;;;4.00;3.07;;;3.80;99.90;;;;;;5075695;28;20490;-83
2023/12/15 11:25:19;;;;;;;4.83;2.77;;;3.80;99.90;;;;;;5072303;28;20528;-81
2023/12/15 11:28:07;;;;;;;5.07;2.23;;;3.80;99.90;;;;;;5076901;28;20553;-82
2023/12/15 11:30:36;;;;;;;3.30;2.53;;;3.70;99.90;;;;;;5079547;28;20516;-82
2023/12/15 11:33:40;;;;;;;4.23;2.37;;;3.70;99.90;;;;;;5076099;28;20468;-82
2023/12/15 11:36:09;;;;;;;4.33;2.60;;;3.70;99.90;;;;;;5075487;28;20469;-82
2023/12/15 11:38:37;;;;;;;4.30;2.80;;;3.70;99.90;;;;;;5069285;28;20922;-82
2023/12/15 11:41:05;;;;;;;4.13;2.77;;;3.70;99.90;;;;;;5073017;28;20547;-82
2023/12/15 11:43:36;;;;;;;3.60;2.90;;;3.70;99.90;;;;;;5070089;28;20467;-82
2023/12/15 11:46:04;;;;;;;4.60;3.17;;;3.70;99.90;;;;;;5072938;28;20471;-82
2023/12/15 11:48:32;;;;;;;3.83;1.40;;;3.70;99.90;;;;;;5067266;28;20530;-82
2023/12/15 11:50:59;;;;;;;3.17;2.57;;;3.70;99.90;;;;;;5072227;28;20455;-83
2023/12/15 11:53:28;;;;;;;4.00;2.77;;;3.70;99.90;;;;;;5077485;28;20467;-83
2023/12/15 11:55:55;;;;;;;2.83;2.07;;;3.80;99.90;;;;;;5081058;28;20869;-83
2023/12/15 11:58:23;;;;;;;3.10;2.40;;;3.90;99.90;;;;;;5069634;28;20681;-83
2023/12/15 12:00:50;;;;;;;2.57;2.10;;;3.90;99.90;;;;;;5076922;28;20458;-82
2023/12/15 12:03:19;;;;;;;5.03;3.63;;;3.90;99.90;;;;;;5079617;28;20442;-83
2023/12/15 12:05:47;;;;;;;3.47;2.07;;;3.90;99.90;;;;;;5072371;28;20900;-83
2023/12/15 12:08:15;;;;;;;2.93;2.40;;;4.10;99.90;;;;;;5067332;28;21152;-83
2023/12/15 12:10:43;;;;;;;3.80;2.70;;;4.20;99.90;;;;;;5073240;28;20447;-83
2023/12/15 12:13:12;;;;;;;3.83;2.70;;;4.20;99.90;;;;;;5063792;28;20464;-83
2023/12/15 12:15:52;;;;;;;4.33;3.00;;;4.20;99.90;;;;;;5068339;28;20474;-83
2023/12/15 12:18:20;;;;;;;3.17;1.80;;;4.30;99.90;;;;;;5065223;28;20518;-83
2023/12/15 12:20:48;;;;;;;2.50;1.87;;;4.40;99.90;;;;;;5069184;28;20495;-83
2023/12/15 12:23:16;;;;;;;3.60;2.90;;;4.40;99.90;;;;;;5063393;28;20467;-81
2023/12/15 12:25:47;;;;;;;3.40;2.00;;;4.30;99.90;;;;;;5080969;28;20450;-81
2023/12/15 12:28:16;;;;;;;2.97;2.17;;;4.30;99.90;;;;;;5067396;28;20468;-81
2023/12/15 12:30:43;;;;;;;3.80;3.40;;;4.20;99.90;;;;;;5076916;28;20478;-81
2023/12/15 12:33:10;;;;;;;3.27;2.40;;;4.20;99.90;;;;;;5065458;28;20475;-81
2023/12/15 12:35:38;;;;;;;3.23;2.60;;;4.20;99.90;;;;;;5077572;28;20565;-81
2023/12/15 12:38:06;;;;;;;3.60;2.50;;;4.20;99.90;;;;;;5078175;28;20931;-81
2023/12/15 12:40:33;;;;;;;4.20;2.80;;;4.30;99.90;;;;;;5080184;28;20501;-81
2023/12/15 12:43:02;;;;;;;7.27;3.90;;;4.20;99.90;;;;;;5083060;28;20479;-81
2023/12/15 12:45:29;;;;;;;2.90;2.00;;;4.20;99.90;;;;;;5070761;28;20552;-81
2023/12/15 12:47:56;;;;;;;4.50;2.63;;;4.20;99.90;;;;;;5067415;28;20470;-81
2023/12/15 12:50:24;;;;;;;5.50;2.93;;;4.20;99.90;;;;;;5070677;28;20606;-81
2023/12/15 12:52:51;;;;;;;3.83;2.83;;;4.10;99.90;;;;;;5070800;28;20832;-83
2023/12/15 12:55:19;;;;;;;3.97;2.60;;;4.00;99.90;;;;;;5074231;28;20929;-82
2023/12/15 12:57:47;;;;;;;4.00;3.60;;;4.00;99.90;;;;;;5077194;28;20468;-82
2023/12/15 13:00:17;;;;;;;3.13;2.53;;;4.00;99.90;;;;;;5071548;28;20482;-82